Time;durP1;ratioP1;P1;durP2;ratioP2;P2;SDS_P1;SDS_P2;PMS_P1;PMS_P2;Temp;Humidity;BMP_temperature;BMP_pressure;BME280_temperature;BME280_humidity;BME280_pressure;Samples;Min_cycle;Max_cycle;Signal;HPM_P1;HPM_P2
2023/03/05 00:01:09;;;;;;;3.08;1.60;;;;;;;20.41;45.10;96663.97;10457414;28;20060;-53
2023/03/05 00:06:29;;;;;;;2.80;1.70;;;;;;;20.40;45.10;96654.25;10457242;28;20083;-54
2023/03/05 00:11:48;;;;;;;2.58;1.48;;;;;;;20.39;45.08;96658.88;10456917;28;20053;-55
2023/03/05 00:17:08;;;;;;;1.65;1.50;;;;;;;20.39;44.90;96650.00;10456686;28;20057;-55
2023/03/05 00:22:27;;;;;;;2.95;1.67;;;;;;;20.38;44.92;96642.97;10456809;28;20045;-55
2023/03/05 00:27:47;;;;;;;2.45;1.60;;;;;;;20.37;44.81;96641.41;10456646;28;20130;-54
2023/03/05 00:33:08;;;;;;;3.03;1.60;;;;;;;20.35;44.85;96626.28;10456678;28;20057;-54
2023/03/05 00:38:27;;;;;;;3.08;1.33;;;;;;;20.34;44.74;96627.41;10457546;28;20055;-54
2023/03/05 00:43:47;;;;;;;2.40;1.40;;;;;;;20.34;44.64;96624.69;10464452;28;20475;-54
2023/03/05 00:49:06;;;;;;;3.90;1.60;;;;;;;20.33;44.47;96622.34;10464178;28;20061;-55
2023/03/05 00:54:26;;;;;;;2.47;1.60;;;;;;;20.31;44.52;96617.25;10464400;28;20075;-54
2023/03/05 00:59:45;;;;;;;1.60;1.27;;;;;;;20.29;44.68;96614.09;10463705;28;20049;-54
2023/03/05 01:05:05;;;;;;;3.42;1.58;;;;;;;20.27;44.51;96608.25;10463779;28;20056;-54
2023/03/05 01:10:25;;;;;;;1.63;1.33;;;;;;;20.27;44.51;96600.13;10463715;28;20413;-55
2023/03/05 01:15:47;;;;;;;2.30;1.50;;;;;;;20.26;44.60;96598.53;10463563;28;20053;-54
2023/03/05 01:21:07;;;;;;;1.38;1.20;;;;;;;20.24;44.44;96595.38;10463035;28;20053;-55
2023/03/05 01:26:27;;;;;;;2.65;1.38;;;;;;;20.25;44.48;96594.25;10463206;28;20053;-55
2023/03/05 01:31:46;;;;;;;2.53;1.50;;;;;;;20.21;44.34;96579.81;10461974;28;20516;-55
2023/03/05 01:37:06;;;;;;;1.70;1.02;;;;;;;20.21;44.57;96579.81;10447746;28;20049;-54
2023/03/05 01:42:26;;;;;;;1.60;1.45;;;;;;;20.19;44.30;96576.66;10462348;28;20048;-54
2023/03/05 01:47:46;;;;;;;2.40;1.23;;;;;;;20.17;44.35;96568.09;10462474;28;20053;-55
2023/03/05 01:53:06;;;;;;;2.20;1.20;;;;;;;20.14;44.41;96569.53;10460543;28;20147;-55
2023/03/05 01:58:26;;;;;;;1.38;1.10;;;;;;;20.15;44.26;96564.94;10461641;28;20052;-55
2023/03/05 02:03:46;;;;;;;1.33;1.08;;;;;;;20.12;44.20;96554.75;10461370;28;20045;-50
2023/03/05 02:09:06;;;;;;;1.50;1.20;;;;;;;20.10;44.13;96548.91;10461336;28;20061;-50
2023/03/05 02:14:26;;;;;;;1.90;1.40;;;;;;;20.08;44.12;96546.53;10461155;28;20045;-50
2023/03/05 02:19:52;;;;;;;1.83;1.35;;;;;;;20.07;43.89;96547.66;10460397;28;20056;-51
2023/03/05 02:25:21;;;;;;;2.05;1.25;;;;;;;20.06;44.17;96545.28;10459963;28;20061;-51
2023/03/05 02:30:41;;;;;;;1.83;1.40;;;;;;;20.05;44.08;96530.16;10460248;28;20076;-52
2023/03/05 02:36:00;;;;;;;1.98;1.30;;;;;;;20.02;44.05;96528.94;10459961;28;20064;-50
2023/03/05 02:41:20;;;;;;;2.35;1.30;;;;;;;20.00;44.15;96514.19;10460294;28;20053;-49
2023/03/05 02:46:41;;;;;;;2.30;1.48;;;;;;;20.00;44.08;96519.59;10458244;28;20044;-50
2023/03/05 02:52:00;;;;;;;1.38;1.02;;;;;;;19.98;44.01;96527.25;10444076;28;20053;-51
2023/03/05 02:57:20;;;;;;;1.25;1.13;;;;;;;19.95;44.12;96513.25;10444053;28;20089;-50
2023/03/05 03:02:40;;;;;;;1.55;1.10;;;;;;;19.94;44.04;96516.28;10444039;28;20053;-50
2023/03/05 03:08:00;;;;;;;1.98;1.23;;;;;;;19.91;44.04;96509.63;10458893;28;20056;-51
2023/03/05 03:13:19;;;;;;;1.20;1.10;;;;;;;19.91;43.99;96508.84;10458948;28;20060;-50
2023/03/05 03:18:38;;;;;;;1.70;1.10;;;;;;;19.89;44.08;96511.88;10458416;28;20057;-48
2023/03/05 03:23:58;;;;;;;1.35;1.10;;;;;;;19.87;44.07;96506.00;10457363;28;20494;-50
2023/03/05 03:29:17;;;;;;;0.95;0.90;;;;;;;19.85;43.85;96502.06;10458019;28;20053;-48
2023/03/05 03:34:36;;;;;;;1.08;0.95;;;;;;;19.84;43.92;96495.88;10458099;28;20448;-50
2023/03/05 03:39:56;;;;;;;1.33;1.20;;;;;;;19.83;43.95;96493.50;10457815;28;20049;-50
2023/03/05 03:45:16;;;;;;;1.17;1.02;;;;;;;19.80;43.78;96499.56;10457671;28;20412;-49
2023/03/05 03:50:42;;;;;;;0.90;0.90;;;;;;;19.79;43.93;96487.19;10456514;28;20059;-49
2023/03/05 03:56:02;;;;;;;1.40;0.93;;;;;;;19.78;43.81;96485.59;10456889;28;20520;-50
2023/03/05 04:01:21;;;;;;;1.55;1.02;;;;;;;19.75;43.80;96477.03;10457178;28;20048;-50
2023/03/05 04:06:41;;;;;;;1.30;0.90;;;;;;;19.73;43.67;96475.78;10457206;28;20053;-50
2023/03/05 04:12:00;;;;;;;1.20;1.08;;;;;;;19.72;43.81;96474.22;10441660;28;20045;-50
2023/03/05 04:17:20;;;;;;;2.08;0.90;;;;;;;19.70;43.91;96476.44;10456431;28;20443;-47
2023/03/05 04:22:40;;;;;;;1.00;0.90;;;;;;;19.68;43.83;96471.34;10456229;28;20505;-48
2023/03/05 04:27:59;;;;;;;1.23;0.82;;;;;;;19.67;43.81;96469.75;10456369;28;20050;-49
2023/03/05 04:33:18;;;;;;;1.27;1.02;;;;;;;19.65;43.95;96460.41;10456534;28;20405;-49
2023/03/05 04:38:38;;;;;;;1.10;1.00;;;;;;;19.63;43.83;96457.25;10456552;28;20057;-52
2023/03/05 04:43:57;;;;;;;1.10;1.00;;;;;;;19.62;43.65;96452.97;10456204;28;20048;-49
2023/03/05 04:49:17;;;;;;;1.20;1.10;;;;;;;19.60;43.72;96463.31;10455800;28;20103;-50
2023/03/05 04:54:37;;;;;;;1.20;0.98;;;;;;;19.59;43.64;96459.06;10440904;28;20055;-50
2023/03/05 04:59:56;;;;;;;0.88;0.80;;;;;;;19.56;43.75;96450.50;10455988;28;20107;-49
2023/03/05 05:05:22;;;;;;;1.48;0.80;;;;;;;19.56;43.74;96457.78;10456067;28;20057;-50
2023/03/05 05:10:42;;;;;;;1.65;0.90;;;;;;;19.53;43.72;96461.16;10455046;28;20060;-49
2023/03/05 05:16:01;;;;;;;0.90;0.75;;;;;;;19.52;43.76;96459.56;10455652;28;20405;-49
2023/03/05 05:21:21;;;;;;;1.50;1.00;;;;;;;19.49;43.75;96466.44;10455793;28;20049;-48
2023/03/05 05:26:41;;;;;;;0.80;0.80;;;;;;;19.47;43.73;96460.56;10458406;28;20072;-50
2023/03/05 05:32:00;;;;;;;0.85;0.80;;;;;;;19.47;43.76;96470.59;10462762;28;20049;-49
2023/03/05 05:37:20;;;;;;;1.65;1.13;;;;;;;19.46;43.64;96474.41;10462754;28;20060;-48
2023/03/05 05:42:39;;;;;;;1.40;0.70;;;;;;;19.43;43.74;96470.47;10462230;28;20053;-50
2023/03/05 05:47:58;;;;;;;0.93;0.82;;;;;;;19.42;43.67;96478.91;10462139;28;20111;-49
2023/03/05 05:53:18;;;;;;;0.90;0.70;;;;;;;19.40;43.70;96479.22;10461743;28;20053;-48
2023/03/05 05:58:38;;;;;;;1.52;0.98;;;;;;;19.39;43.67;96488.47;10461995;28;20053;-50
2023/03/05 06:03:58;;;;;;;1.10;1.00;;;;;;;19.38;43.49;96486.88;10461264;28;20048;-51
2023/03/05 06:09:18;;;;;;;1.02;0.90;;;;;;;19.37;43.62;96485.31;10461182;28;20075;-49
2023/03/05 06:14:37;;;;;;;0.73;0.73;;;;;;;19.35;43.81;96491.03;10461022;28;20048;-49
2023/03/05 06:19:57;;;;;;;1.00;1.00;;;;;;;19.36;43.96;96497.22;10474073;28;20044;-50
2023/03/05 06:25:17;;;;;;;1.17;0.80;;;;;;;19.34;44.05;96499.44;10460757;28;20056;-46
2023/03/05 06:30:37;;;;;;;1.00;0.82;;;;;;;19.33;44.16;96497.88;10460425;28;20056;-50
2023/03/05 06:35:56;;;;;;;1.15;0.90;;;;;;;19.31;44.56;96498.22;10459692;28;20056;-49
2023/03/05 06:41:19;;;;;;;0.90;0.80;;;;;;;19.30;44.38;96499.31;10459559;28;20106;-48
2023/03/05 06:46:38;;;;;;;1.75;0.75;;;;;;;19.28;44.37;96496.16;10459149;28;20489;-47
2023/03/05 06:51:58;;;;;;;2.30;0.80;;;;;;;19.27;44.37;96493.81;10459061;28;20057;-48
2023/03/05 06:57:17;;;;;;;1.10;0.90;;;;;;;19.26;44.08;96494.91;10472856;28;20040;-49
2023/03/05 07:02:37;;;;;;;1.05;0.88;;;;;;;19.27;44.31;96497.28;10459607;28;20380;-48
2023/03/05 07:07:56;;;;;;;2.97;0.90;;;;;;;19.29;44.32;96494.25;10458782;28;20064;-49
2023/03/05 07:13:16;;;;;;;3.15;0.65;;;;;;;19.29;44.00;96495.03;10458911;28;20405;-50
2023/03/05 07:18:35;;;;;;;1.13;0.70;;;;;;;19.29;43.90;96497.75;10471965;28;20041;-50
2023/03/05 07:23:58;;;;;;;1.67;0.88;;;;;;;19.30;44.02;96488.50;10458551;28;20405;-52
2023/03/05 07:29:17;;;;;;;0.60;0.60;;;;;;;19.33;43.91;96492.47;10443042;28;20061;-49
2023/03/05 07:34:38;;;;;;;0.85;0.70;;;;;;;19.34;43.82;96480.53;10457241;28;20477;-51
2023/03/05 07:39:57;;;;;;;1.05;0.80;;;;;;;19.34;43.77;96491.34;10457633;28;20057;-51
2023/03/05 07:45:16;;;;;;;0.75;0.65;;;;;;;19.37;43.85;96490.69;10457639;28;20061;-49
2023/03/05 07:50:36;;;;;;;0.95;0.82;;;;;;;19.38;43.89;96497.66;10456117;28;20053;-50
2023/03/05 07:55:56;;;;;;;1.63;0.80;;;;;;;19.40;43.73;96500.03;10471003;28;20045;-49
2023/03/05 08:01:15;;;;;;;0.90;0.60;;;;;;;19.42;43.88;96484.28;10456769;28;20053;-49
2023/03/05 08:06:38;;;;;;;0.90;0.68;;;;;;;19.44;43.84;96490.94;10456532;28;20052;-48
2023/03/05 08:11:58;;;;;;;1.23;0.80;;;;;;;19.47;43.79;96489.50;10457327;28;20393;-50
2023/03/05 08:17:18;;;;;;;0.90;0.75;;;;;;;19.50;43.74;96489.66;10457078;28;20055;-49
2023/03/05 08:22:37;;;;;;;1.45;0.85;;;;;;;19.51;43.73;96491.22;10456590;28;20052;-49
2023/03/05 08:27:57;;;;;;;1.17;0.88;;;;;;;19.55;43.86;96484.03;10456361;28;20485;-50
2023/03/05 08:33:17;;;;;;;0.75;0.60;;;;;;;19.59;43.99;96480.66;10456102;28;20064;-49
2023/03/05 08:38:36;;;;;;;1.67;0.55;;;;;;;19.63;44.05;96478.88;10456800;28;20448;-50
2023/03/05 08:43:56;;;;;;;0.90;0.80;;;;;;;19.64;44.22;96462.34;10469542;28;20056;-51
2023/03/05 08:49:16;;;;;;;0.98;0.80;;;;;;;19.68;44.25;96470.53;10455726;28;20068;-51
2023/03/05 08:54:36;;;;;;;2.00;0.70;;;;;;;19.71;44.18;96464.50;10456717;28;20056;-52
2023/03/05 08:59:55;;;;;;;0.85;0.68;;;;;;;19.73;44.26;96463.06;10457463;28;20519;-48
2023/03/05 09:05:15;;;;;;;0.73;0.60;;;;;;;19.77;44.01;96465.09;10463701;28;20045;-53
2023/03/05 09:10:35;;;;;;;0.68;0.68;;;;;;;19.80;44.12;96457.13;10463562;28;20053;-50
2023/03/05 09:15:56;;;;;;;0.68;0.60;;;;;;;19.83;43.85;96451.03;10463328;28;20064;-50
2023/03/05 09:21:16;;;;;;;2.25;0.90;;;;;;;19.87;43.98;96451.94;10463250;28;20045;-51
2023/03/05 09:26:36;;;;;;;1.05;0.70;;;;;;;19.90;43.90;96445.88;10462630;28;20057;-50
2023/03/05 09:31:56;;;;;;;0.63;0.50;;;;;;;19.93;43.86;96447.94;10462846;28;20049;-50
2023/03/05 09:37:15;;;;;;;1.50;0.68;;;;;;;19.95;43.91;96431.34;10475421;28;20041;-50
2023/03/05 09:43:15;;;;;;;0.52;0.52;;;;;;;19.99;43.75;96436.88;10462568;28;20045;-49
2023/03/05 09:48:52;;;;;;;0.73;0.73;;;;;;;20.00;43.74;96438.47;10427838;28;20068;-51
2023/03/05 09:54:22;;;;;;;0.47;0.47;;;;;;;20.02;43.69;96437.00;10462164;28;20060;-50
2023/03/05 09:59:55;;;;;;;1.00;0.70;;;;;;;20.04;43.57;96433.97;10447172;28;20057;-50
2023/03/05 10:05:29;;;;;;;1.38;0.60;;;;;;;20.06;43.85;96429.00;10461764;28;20053;-52
2023/03/05 10:10:51;;;;;;;0.63;0.52;;;;;;;20.08;43.90;96414.03;10459970;28;20536;-49
2023/03/05 10:16:49;;;;;;;0.50;0.50;;;;;;;20.11;43.77;96409.84;10461040;28;20060;-50
2023/03/05 10:22:24;;;;;;;2.15;0.50;;;;;;;20.14;43.53;96406.47;10444243;28;20045;-51
2023/03/05 10:28:04;;;;;;;0.50;0.50;;;;;;;20.17;43.68;96400.41;10445914;28;20118;-51
2023/03/05 10:33:38;;;;;;;1.23;0.50;;;;;;;20.20;43.62;96396.22;10460604;28;20128;-50
2023/03/05 10:39:39;;;;;;;0.80;0.60;;;;;;;20.22;43.72;96385.88;10460007;28;20102;-52
2023/03/05 10:45:00;;;;;;;1.67;0.43;;;;;;;20.25;43.52;96377.09;10460159;28;20124;-50
2023/03/05 10:50:24;;;;;;;1.65;0.55;;;;;;;20.27;43.65;96366.72;10444612;28;20063;-51
2023/03/05 10:55:43;;;;;;;0.73;0.50;;;;;;;20.30;43.59;96369.50;10458781;28;20473;-51
2023/03/05 11:01:05;;;;;;;0.60;0.57;;;;;;;20.31;43.66;96362.97;10472840;28;20405;-50
2023/03/05 11:06:27;;;;;;;0.60;0.60;;;;;;;20.34;43.87;96362.28;10458868;28;20053;-51
2023/03/05 11:11:59;;;;;;;0.50;0.40;;;;;;;20.37;43.59;96351.94;10458815;28;20079;-52
2023/03/05 11:17:27;;;;;;;2.47;0.50;;;;;;;20.38;43.61;96343.47;10458666;28;20059;-50
2023/03/05 11:23:09;;;;;;;1.47;0.70;;;;;;;20.40;43.50;96333.09;10458327;28;20463;-52
2023/03/05 11:28:31;;;;;;;2.15;0.50;;;;;;;20.43;43.47;96327.00;10458575;28;20298;-51
2023/03/05 11:34:05;;;;;;;0.40;0.40;;;;;;;20.44;43.54;96306.13;10458006;28;20049;-49
2023/03/05 11:39:26;;;;;;;0.40;0.40;;;;;;;20.45;43.64;96307.72;10457379;28;20052;-50
2023/03/05 11:44:54;;;;;;;0.55;0.50;;;;;;;20.45;43.52;96303.09;10471039;28;20511;-48
2023/03/05 11:50:23;;;;;;;1.30;0.45;;;;;;;20.44;43.37;96301.50;10442223;28;20095;-52
2023/03/05 11:55:45;;;;;;;0.95;0.38;;;;;;;20.45;43.37;96288.78;10457554;28;20455;-51
2023/03/05 12:01:14;;;;;;;0.38;0.38;;;;;;;20.47;43.50;96267.59;10441697;28;20124;-48
2023/03/05 12:06:47;;;;;;;0.67;0.40;;;;;;;20.46;43.36;96261.38;10457034;28;20420;-50
2023/03/05 12:12:36;;;;;;;0.82;0.40;;;;;;;20.45;43.43;96254.41;10441640;28;20128;-49
2023/03/05 12:18:09;;;;;;;0.50;0.50;;;;;;;20.46;43.51;96250.53;10456750;28;20064;-52
2023/03/05 12:23:44;;;;;;;21.45;6.00;;;;;;;20.48;44.82;96245.59;10456194;28;20110;-50
2023/03/05 12:29:04;;;;;;;11.50;4.28;;;;;;;20.50;45.08;96235.22;10456369;28;20048;-49
2023/03/05 12:34:36;;;;;;;11.85;4.10;;;;;;;20.51;46.43;96227.88;10457591;28;20045;-50
2023/03/05 12:39:57;;;;;;;3.13;1.40;;;;;;;19.91;31.87;96211.47;10464782;28;20056;-50
2023/03/05 12:45:18;;;;;;;6.38;2.47;;;;;;;20.03;37.67;96232.28;10464612;28;20102;-50
2023/03/05 12:50:38;;;;;;;9.90;3.97;;;;;;;20.17;39.49;96221.09;10463765;28;20118;-48
2023/03/05 12:55:57;;;;;;;12.00;5.47;;;;;;;20.23;40.25;96207.03;10464472;28;20063;-52
2023/03/05 13:01:31;;;;;;;8.30;4.43;;;;;;;20.29;40.56;96215.69;10463891;28;20048;-51
2023/03/05 13:07:04;;;;;;;9.10;4.18;;;;;;;20.31;41.13;96205.31;10449068;28;20417;-52
2023/03/05 13:12:26;;;;;;;7.82;3.45;;;;;;;20.35;41.42;96208.91;10463484;28;20443;-48
2023/03/05 13:18:02;;;;;;;8.45;3.47;;;;;;;20.37;42.42;96203.16;10476482;28;20037;-51
2023/03/05 13:23:26;;;;;;;2.42;1.50;;;;;;;19.61;27.78;96208.22;10463207;28;20049;-51
2023/03/05 13:29:07;;;;;;;2.08;0.95;;;;;;;18.87;25.44;96198.13;10462984;28;20083;-51
2023/03/05 13:34:36;;;;;;;1.60;1.00;;;;;;;19.34;31.73;96196.94;10462251;28;20053;-53
2023/03/05 13:40:05;;;;;;;0.93;0.80;;;;;;;19.69;33.39;96204.59;10461923;28;20529;-52
2023/03/05 13:45:27;;;;;;;1.80;0.90;;;;;;;19.87;33.57;96194.34;10461801;28;20060;-51
2023/03/05 13:50:55;;;;;;;2.08;0.90;;;;;;;19.96;33.68;96192.31;10461409;28;20053;-51
2023/03/05 13:56:17;;;;;;;1.10;0.80;;;;;;;20.02;34.41;96187.47;10461818;28;20060;-52
2023/03/05 14:01:44;;;;;;;1.20;0.75;;;;;;;20.06;35.23;96185.66;10460981;28;20053;-49
2023/03/05 14:07:06;;;;;;;12.77;6.38;;;;;;;20.08;35.97;96172.56;10446508;28;20052;-52
2023/03/05 14:12:35;;;;;;;10.60;4.63;;;;;;;20.11;37.02;96183.50;10461253;28;20056;-51
2023/03/05 14:18:10;;;;;;;7.78;3.03;;;;;;;20.14;37.82;96179.31;10461446;28;20053;-50
2023/03/05 14:23:33;;;;;;;11.63;3.13;;;;;;;20.14;38.49;96165.78;10460599;28;20056;-57
2023/03/05 14:29:13;;;;;;;6.45;2.58;;;;;;;20.15;39.00;96170.09;10460548;28;20071;-58
2023/03/05 14:34:39;;;;;;;4.70;2.10;;;;;;;20.15;39.44;96159.28;10459632;28;20056;-53
2023/03/05 14:40:05;;;;;;;7.60;2.55;;;;;;;20.14;39.56;96155.75;10459503;28;20056;-50
2023/03/05 14:45:30;;;;;;;4.53;2.10;;;;;;;20.15;39.82;96151.16;10459141;28;20523;-53
2023/03/05 14:50:53;;;;;;;7.40;2.25;;;;;;;20.15;40.05;96151.16;10458975;28;20064;-53
2023/03/05 14:56:27;;;;;;;4.45;2.00;;;;;;;20.16;40.37;96150.00;10472810;28;20163;-51
2023/03/05 15:01:49;;;;;;;4.40;1.83;;;;;;;20.18;40.29;96147.75;10458430;28;20053;-50
2023/03/05 15:07:17;;;;;;;3.17;1.73;;;;;;;20.20;40.46;96144.72;10472101;28;20052;-51
2023/03/05 15:12:37;;;;;;;4.10;1.90;;;;;;;20.20;40.54;96134.66;10457976;28;20049;-52
2023/03/05 15:17:56;;;;;;;3.45;1.70;;;;;;;20.22;40.68;96137.81;10471654;28;20044;-52
2023/03/05 15:23:16;;;;;;;3.40;1.45;;;;;;;20.24;40.66;96130.16;10458072;28;20049;-51
2023/03/05 15:28:37;;;;;;;3.75;1.60;;;;;;;20.26;40.75;96119.75;10471458;28;20045;-50
2023/03/05 15:33:57;;;;;;;5.45;1.80;;;;;;;20.27;40.77;96107.06;10458067;28;20405;-50
2023/03/05 15:39:16;;;;;;;4.00;1.52;;;;;;;20.28;40.70;96098.56;10457813;28;20126;-48
2023/03/05 15:44:38;;;;;;;2.65;1.35;;;;;;;20.30;40.79;96096.31;10457353;28;20175;-51
2023/03/05 15:49:57;;;;;;;2.80;1.42;;;;;;;20.31;40.75;96103.28;10456710;28;20468;-51
2023/03/05 15:55:18;;;;;;;2.83;1.42;;;;;;;20.33;40.89;96094.84;10457072;28;20053;-50
2023/03/05 16:00:39;;;;;;;3.65;1.35;;;;;;;20.37;40.95;96095.72;10456905;28;20049;-49
2023/03/05 16:05:58;;;;;;;2.65;1.17;;;;;;;20.37;41.08;96079.50;10470327;28;20048;-51
2023/03/05 16:11:18;;;;;;;2.75;1.42;;;;;;;20.41;41.04;96085.78;10469160;28;20037;-52
2023/03/05 16:16:38;;;;;;;2.03;1.10;;;;;;;20.42;40.93;96086.56;10469849;28;20048;-50
2023/03/05 16:21:57;;;;;;;3.28;1.30;;;;;;;20.43;41.08;96072.69;10456177;28;20044;-52
2023/03/05 16:27:17;;;;;;;2.47;1.20;;;;;;;20.47;41.28;96080.91;10456193;28;20053;-46
2023/03/05 16:32:37;;;;;;;2.67;1.27;;;;;;;20.50;41.56;96080.19;10456056;28;20053;-49
2023/03/05 16:37:56;;;;;;;4.38;1.50;;;;;;;20.52;41.71;96086.03;10455967;28;20056;-47
2023/03/05 16:43:15;;;;;;;2.13;1.20;;;;;;;20.55;41.88;96079.94;10456357;28;20048;-50
2023/03/05 16:48:36;;;;;;;2.88;1.38;;;;;;;20.59;42.03;96070.03;10455827;28;20111;-58
2023/03/05 16:53:55;;;;;;;1.48;1.15;;;;;;;20.61;42.12;96072.38;10455556;28;20053;-58
2023/03/05 16:59:15;;;;;;;2.83;1.02;;;;;;;20.63;42.46;96070.91;10455600;28;20060;-46
2023/03/05 17:04:35;;;;;;;2.25;1.38;;;;;;;20.68;43.36;96065.25;10455308;28;20512;-50
2023/03/05 17:09:55;;;;;;;2.05;1.33;;;;;;;20.72;43.32;96073.44;10455810;28;20059;-51
2023/03/05 17:15:14;;;;;;;3.03;1.38;;;;;;;20.76;43.23;96076.22;10455366;28;20053;-49
2023/03/05 17:20:35;;;;;;;2.67;1.40;;;;;;;20.80;43.00;96080.59;10456347;28;20076;-47
2023/03/05 17:25:54;;;;;;;2.20;1.13;;;;;;;20.81;42.33;96070.56;10462335;28;20496;-48
2023/03/05 17:31:14;;;;;;;2.60;1.20;;;;;;;20.82;42.38;96070.22;10462953;28;20075;-48
2023/03/05 17:36:33;;;;;;;1.67;1.20;;;;;;;20.84;42.45;96075.28;10462008;28;20057;-51
2023/03/05 17:41:53;;;;;;;2.53;1.27;;;;;;;20.83;42.37;96082.59;10475654;28;20493;-49
2023/03/05 17:47:13;;;;;;;1.42;1.08;;;;;;;20.85;42.50;96084.97;10461864;28;20057;-48
2023/03/05 17:52:37;;;;;;;2.10;1.30;;;;;;;20.85;42.39;96093.84;10461594;28;20053;-51
2023/03/05 17:57:56;;;;;;;2.60;1.20;;;;;;;20.83;42.45;96093.44;10474900;28;20048;-51
2023/03/05 18:03:15;;;;;;;2.17;1.13;;;;;;;20.82;42.53;96089.16;10474293;28;20045;-47
2023/03/05 18:08:35;;;;;;;1.98;1.17;;;;;;;20.83;42.31;96098.06;10461181;28;20053;-48
2023/03/05 18:13:54;;;;;;;1.38;0.98;;;;;;;20.82;42.33;96094.56;10461037;28;20053;-49
2023/03/05 18:19:13;;;;;;;1.20;0.90;;;;;;;20.84;40.29;96091.53;10460452;28;20060;-50
2023/03/05 18:24:33;;;;;;;3.08;1.10;;;;;;;20.83;41.03;96079.88;10460318;28;20103;-52
2023/03/05 18:29:53;;;;;;;1.30;1.02;;;;;;;20.81;41.16;96071.34;10473884;28;20091;-52
2023/03/05 18:35:13;;;;;;;1.45;1.10;;;;;;;20.81;41.18;96074.03;10459414;28;20057;-51
2023/03/05 18:40:34;;;;;;;1.38;0.80;;;;;;;20.81;41.50;96073.25;10459476;28;20065;-47
2023/03/05 18:45:54;;;;;;;3.83;0.90;;;;;;;20.79;41.34;96067.41;10444653;28;20061;-51
2023/03/05 18:51:15;;;;;;;1.73;1.00;;;;;;;20.79;41.31;96067.41;10458809;28;20053;-52
2023/03/05 18:56:35;;;;;;;1.52;0.90;;;;;;;20.77;41.43;96075.09;10459075;28;20053;-54
2023/03/05 19:01:54;;;;;;;1.10;0.90;;;;;;;20.77;41.60;96066.97;10458617;28;20485;-48
2023/03/05 19:07:13;;;;;;;3.78;0.90;;;;;;;20.75;41.78;96070.03;10458963;28;20086;-48
2023/03/05 19:12:37;;;;;;;1.92;0.82;;;;;;;20.75;41.97;96067.31;10458586;28;20048;-50
2023/03/05 19:17:56;;;;;;;1.77;0.80;;;;;;;20.73;41.97;96064.97;10458485;28;20145;-48
2023/03/05 19:23:16;;;;;;;1.95;0.93;;;;;;;20.72;42.22;96060.69;10458060;28;20048;-52
2023/03/05 19:28:35;;;;;;;1.00;0.90;;;;;;;20.72;42.62;96066.09;10457659;28;20504;-50
2023/03/05 19:33:55;;;;;;;2.10;1.02;;;;;;;20.69;42.55;96061.38;10457452;28;20041;-50
2023/03/05 19:39:14;;;;;;;2.15;1.10;;;;;;;20.70;42.70;96062.97;10457605;28;20075;-51
2023/03/05 19:44:34;;;;;;;3.13;1.20;;;;;;;20.68;42.89;96070.66;10456466;28;20045;-51
2023/03/05 19:49:53;;;;;;;2.97;1.10;;;;;;;20.69;43.07;96068.72;10457022;28;20064;-51
2023/03/05 19:55:13;;;;;;;2.58;1.10;;;;;;;20.67;43.14;96057.47;10470436;28;20063;-54
2023/03/05 20:00:32;;;;;;;4.43;1.05;;;;;;;20.66;43.39;96058.59;10456510;28;20047;-54
2023/03/05 20:05:51;;;;;;;2.05;1.00;;;;;;;20.65;43.34;96059.72;10456174;28;20049;-54
2023/03/05 20:11:12;;;;;;;4.60;1.30;;;;;;;20.66;43.34;96053.16;10456374;28;20057;-48
2023/03/05 20:16:34;;;;;;;2.38;1.15;;;;;;;20.63;43.39;96060.06;10469854;28;20041;-50
2023/03/05 20:21:54;;;;;;;1.65;1.10;;;;;;;20.62;43.29;96053.09;10456750;28;20045;-51
2023/03/05 20:27:13;;;;;;;2.53;1.15;;;;;;;20.60;43.79;96049.16;10456340;28;20114;-53
2023/03/05 20:32:32;;;;;;;2.97;1.00;;;;;;;20.59;43.69;96048.38;10456316;28;20057;-53
2023/03/05 20:43:41;;;;;;;1.77;1.05;;;;;;;20.56;43.71;96038.22;10455917;28;20049;-50
2023/03/05 20:49:02;;;;;;;1.58;0.80;;;;;;;20.54;43.86;96038.59;10455601;28;20053;-50
2023/03/05 20:54:26;;;;;;;2.58;0.98;;;;;;;20.53;43.81;96028.88;10455731;28;20056;-54
2023/03/05 20:59:45;;;;;;;2.50;1.10;;;;;;;20.52;44.21;96029.22;10463134;28;20481;-52
2023/03/05 21:05:05;;;;;;;3.78;1.02;;;;;;;20.52;44.21;96029.22;10463833;28;20099;-48
2023/03/05 21:10:26;;;;;;;2.85;0.90;;;;;;;20.50;44.20;96023.38;10463432;28;20081;-50
2023/03/05 21:15:45;;;;;;;2.08;1.10;;;;;;;20.49;44.01;96006.34;10463559;28;20079;-50
2023/03/05 21:21:05;;;;;;;2.33;1.00;;;;;;;20.47;44.02;95997.03;10462295;28;20053;-50
2023/03/05 21:26:24;;;;;;;2.50;1.13;;;;;;;20.45;43.90;95994.66;10462950;28;20057;-49
2023/03/05 21:31:44;;;;;;;3.03;1.02;;;;;;;20.42;43.80;96010.81;10462571;28;20051;-51
2023/03/05 21:37:03;;;;;;;3.95;1.30;;;;;;;20.40;43.81;95994.91;10462525;28;20582;-50
2023/03/05 21:42:23;;;;;;;4.03;1.23;;;;;;;20.39;43.82;96000.69;10462109;28;20057;-49
2023/03/05 21:47:43;;;;;;;4.32;1.30;;;;;;;20.37;43.73;95997.56;10461922;28;20475;-48
2023/03/05 21:53:02;;;;;;;3.15;1.55;;;;;;;20.36;43.80;95977.81;10461189;28;20064;-49
2023/03/05 21:58:22;;;;;;;1.95;1.20;;;;;;;20.34;44.09;95980.09;10461613;28;20053;-47
2023/03/05 22:03:41;;;;;;;3.20;1.58;;;;;;;20.33;44.20;95973.13;10461192;28;20048;-48
2023/03/05 22:09:00;;;;;;;1.92;1.23;;;;;;;20.31;44.18;95973.47;10473298;28;20052;-49
2023/03/05 22:14:20;;;;;;;2.13;1.20;;;;;;;20.31;44.10;95956.47;10460227;28;20080;-51
2023/03/05 22:19:39;;;;;;;2.70;1.52;;;;;;;20.28;44.25;95943.63;10474161;28;20428;-50
2023/03/05 22:24:59;;;;;;;1.95;1.15;;;;;;;20.27;44.31;95959.06;10460729;28;20053;-48
2023/03/05 22:30:18;;;;;;;2.30;1.15;;;;;;;20.26;44.19;95956.72;10460288;28;20053;-50
2023/03/05 22:35:39;;;;;;;2.55;1.13;;;;;;;20.24;44.12;95964.38;10460312;28;20405;-49
2023/03/05 22:40:59;;;;;;;3.50;1.30;;;;;;;20.22;44.16;95970.13;10473090;28;20477;-50
2023/03/05 22:46:24;;;;;;;3.08;1.10;;;;;;;20.21;44.10;95963.16;10459667;28;20057;-50
2023/03/05 22:51:43;;;;;;;1.77;1.10;;;;;;;20.19;44.11;95962.75;10458872;28;20056;-50
2023/03/05 22:57:03;;;;;;;2.70;1.40;;;;;;;20.17;44.29;95958.78;10459098;28;20064;-50
2023/03/05 23:02:23;;;;;;;3.10;1.10;;;;;;;20.15;44.12;95948.34;10443421;28;20053;-50
2023/03/05 23:07:43;;;;;;;1.85;1.00;;;;;;;20.13;44.14;95945.19;10472058;28;20055;-49
2023/03/05 23:13:03;;;;;;;2.35;1.00;;;;;;;20.10;44.04;95952.06;10443654;28;20060;-48
2023/03/05 23:18:22;;;;;;;2.88;1.10;;;;;;;20.10;44.05;95941.25;10458110;28;20064;-49
2023/03/05 23:23:41;;;;;;;2.67;1.17;;;;;;;20.06;43.98;95940.38;10471799;28;20045;-49
2023/03/05 23:29:01;;;;;;;1.60;0.80;;;;;;;20.06;43.94;95940.38;10458005;28;20056;-48
2023/03/05 23:34:21;;;;;;;2.47;1.02;;;;;;;20.03;43.89;95933.00;10457193;28;20088;-48
2023/03/05 23:39:40;;;;;;;3.03;0.98;;;;;;;20.03;43.78;95924.06;10458001;28;20055;-49
2023/03/05 23:45:00;;;;;;;1.52;1.00;;;;;;;20.00;43.91;95925.56;10457562;28;20041;-50
2023/03/05 23:50:23;;;;;;;1.35;0.85;;;;;;;19.99;43.91;95918.56;10456608;28;20069;-52
2023/03/05 23:55:43;;;;;;;1.13;0.80;;;;;;;19.96;43.87;95908.47;10470238;28;20045;-48
